• Join FlightAware (Why Join?)
  • Login
  • US Flag 
09:28AM EDT


 

Airport Tracker/Info


-or-


 

Live Flight TrackerFlight Track Log ✈ ASQ6068 ✈ 28-Apr-2013 ✈ KATW - KORD

Flight Track Log - Related Links

Times and Time Zones

All times are in EDT time to prevent confusion due to time zone crossing. See the ASQ6068 flight status page for this flight to view local times or setup timezone preferences in your user account.

Time Position Orientation Groundspeed Altitude Reporting Facility
EDT Latitude Longitude Course Direction KTS MPH feet Rate Location/Type
06:57AM 44.2333 -88.5333 164° South 163 188 2,100  Level KMKE
06:58AM 44.1833 -88.4667 136° Southeast 205 236 4,500 2,340 Climbing KMKE
06:59AM 44.1728 -88.4508 133° Southeast 200 230 5,600 2,220 Climbing Chicago Center
06:59AM 44.1236 -88.4278 161° South 214 246 7,500 1,800 Climbing Minneapolis Center
07:00AM 43.9577 -88.3705 160° South  Level FlightAware Approximate
07:00AM 44.0614 -88.4022 164° South 227 261 9,100  Level Minneapolis Center
07:01AM 43.8843 -88.3338 160° South  Level FlightAware Approximate
07:01AM 43.9858 -88.3678 162° South 275 316 10,500  Level Minneapolis Center
07:02AM 43.8093 -88.3037 164° South  Level FlightAware Approximate
07:02AM 43.8986 -88.3297 163° South 321 369 11,400  Level Minneapolis Center
07:03AM 43.8047 -88.2892 163° South 346 398 12,500 780 Climbing Minneapolis Center
07:04AM 43.7044 -88.2458 163° South 368 423 13,000 240 Climbing Minneapolis Center
07:05AM 43.6019 -88.2019 163° South 378 435 13,000  Level Minneapolis Center
07:06AM 43.5000 -88.1833 172° South 376 433 13,000  Level KMKE
07:07AM 43.4778 -88.1794 173° South 384 442 13,000  Level Chicago Center
07:08AM 43.3689 -88.1706 177° South 386 444 13,000  Level Chicago Center
07:09AM 43.2600 -88.1617 177° South 388 447 13,000 -120 Level Chicago Center
07:10AM 43.1517 -88.1550 177° South 387 445 12,800 -600 Descending Chicago Center
07:11AM 43.0489 -88.1469 177° South 374 430 11,900 -1,080 Descending Chicago Center
07:12AM 42.9658 -88.1400 176° South 311 358 10,700 -960 Descending Chicago Center
07:13AM 42.8861 -88.1383 179° South 290 334 10,000 -660 Descending Chicago Center
07:14AM 42.8050 -88.1522 187° South 292 336 9,400 -780 Descending Chicago Center
07:15AM 42.7267 -88.1658 187° South 284 327 8,500 -720 Descending Chicago Center
07:16AM 42.6492 -88.1767 186° South 280 322 8,000 -300 Descending Chicago Center
07:17AM 42.5731 -88.1836 184° South 275 316 8,000  Level Chicago Center
07:18AM 42.4989 -88.1736 174° South 269 310 8,000  Level Chicago Center
07:19AM 42.4233 -88.1792 183° South 275 316 8,000  Level Chicago Center
07:20AM 42.3550 -88.2289 208° Southwest 278 320 8,000 -60 Level Chicago Center
07:21AM 42.2828 -88.2517 193° South 271 312 7,900 -420 Descending Chicago Center
07:22AM 42.2292 -88.2061 148° Southeast 230 265 7,200 -1,020 Descending Chicago Center
07:23AM 42.1833 -88.1519 139° Southeast 222 255 5,900 -1,320 Descending Chicago Center
07:24AM 42.1425 -88.1050 140° Southeast 203 234 4,600 -1,260 Descending Chicago Center
07:25AM 42.1000 -88.0667 146° Southeast 180 207 3,700 -1,080 Descending Chicago TRACON
07:25AM 42.0667 -88.0333 143° Southeast 183 211 2,800 -900 Descending Chicago TRACON
07:27AM 42.0333 -87.9833 132° Southeast 133 153 2,000 -780 Descending Chicago TRACON